LICZ

Naval Air Station Sigonella

Airport
ICAO code
LICZ
IATA Code
NSY
Summary
ICAO Region
EUR
ICAO Territory
Location

Sigonella, Sicily

Serving
Sigonella
Elevation
79 ft
Coordinates
37° 24' 13" N , 14° 55' 20" E
KCC
Metar
LICZ 151655Z 08013KT 9999 -DZ SCT070 21/17 Q1017

Naval Air Station Sigonella is an Italian Air Force base, and a U.S. Navy installation in Sicily, Italy.

Climatology

Warm mediterranean climate (Köppen climate classification Csa)

Runways

Designator Length Width Surface Rops
10L/28R 2442 30 ASP Yes/Yes
10R/28L 2462 45 ASP Yes/Yes

Airport map

Aerial View

SKYbrary Partners:

Safety knowledge contributed by: